Time;durP1;ratioP1;P1;durP2;ratioP2;P2;SDS_P1;SDS_P2;PMS_P1;PMS_P2;Temp;Humidity;BMP_temperature;BMP_pressure;BME280_temperature;BME280_humidity;BME280_pressure;Samples;Min_cycle;Max_cycle;Signal;HPM_P1;HPM_P2
2024/02/13 00:01:17;;;;;;;7.40;4.10;;;4.90;99.90;;;;;;4986443;28;20331;-83
2024/02/13 00:04:05;;;;;;;9.98;4.30;;;4.80;99.90;;;;;;4979600;28;20331;-84
2024/02/13 00:06:50;;;;;;;7.95;3.85;;;4.80;99.90;;;;;;4990489;28;20215;-85
2024/02/13 00:09:36;;;;;;;8.88;3.33;;;4.80;99.90;;;;;;4988186;28;20364;-84
2024/02/13 00:12:22;;;;;;;5.43;3.33;;;4.80;99.90;;;;;;4986076;28;20288;-84
2024/02/13 00:15:10;;;;;;;7.28;3.30;;;4.90;99.90;;;;;;4987643;28;20221;-84
2024/02/13 00:17:56;;;;;;;15.18;3.63;;;4.80;99.90;;;;;;4981376;28;20204;-84
2024/02/13 00:20:43;;;;;;;6.88;3.17;;;4.70;99.90;;;;;;4983173;28;20212;-82
2024/02/13 00:23:29;;;;;;;8.10;3.80;;;4.60;99.90;;;;;;4977929;28;20219;-84
2024/02/13 00:26:14;;;;;;;5.93;3.55;;;4.60;99.90;;;;;;4976581;28;20212;-83
2024/02/13 00:29:02;;;;;;;7.03;3.70;;;4.50;99.90;;;;;;4978817;28;20229;-83
2024/02/13 00:31:50;;;;;;;6.82;3.55;;;4.60;99.90;;;;;;4981573;28;20211;-83
2024/02/13 00:34:36;;;;;;;10.02;2.97;;;4.40;99.90;;;;;;4978418;28;20226;-83
2024/02/13 00:37:24;;;;;;;4.53;2.60;;;4.50;99.90;;;;;;4981463;28;20211;-85
2024/02/13 00:40:10;;;;;;;9.93;3.50;;;4.50;99.90;;;;;;4980730;28;20299;-83
2024/02/13 00:42:56;;;;;;;3.88;2.70;;;4.50;99.90;;;;;;4982754;28;20212;-83
2024/02/13 00:45:42;;;;;;;8.52;3.80;;;4.50;99.90;;;;;;4981880;28;20251;-84
2024/02/13 00:48:30;;;;;;;8.07;3.15;;;4.40;99.90;;;;;;4980441;28;20239;-82
2024/02/13 00:51:16;;;;;;;6.15;3.42;;;4.40;99.90;;;;;;4982973;28;20253;-84
2024/02/13 00:54:03;;;;;;;12.40;3.17;;;4.40;99.90;;;;;;4975330;28;20205;-84
2024/02/13 00:56:53;;;;;;;6.13;3.85;;;4.30;99.90;;;;;;4981094;28;20315;-84
2024/02/13 00:59:39;;;;;;;6.38;3.35;;;4.20;99.90;;;;;;4977468;28;20285;-84
2024/02/13 01:02:25;;;;;;;10.40;3.00;;;4.20;99.90;;;;;;4981963;28;20692;-84
2024/02/13 01:05:11;;;;;;;4.70;3.42;;;4.20;99.90;;;;;;4978117;28;20203;-84
2024/02/13 01:07:57;;;;;;;9.52;4.25;;;4.20;99.90;;;;;;4980583;28;20874;-83
2024/02/13 01:10:44;;;;;;;4.32;2.85;;;4.30;99.90;;;;;;4977376;28;20292;-85
2024/02/13 01:13:31;;;;;;;6.60;3.60;;;4.20;99.90;;;;;;4976732;28;20227;-82
2024/02/13 01:16:18;;;;;;;6.47;2.78;;;4.30;99.90;;;;;;4979944;28;20274;-84
2024/02/13 01:19:04;;;;;;;6.00;2.60;;;4.30;99.90;;;;;;4978621;28;20238;-84
2024/02/13 01:21:49;;;;;;;7.32;3.15;;;4.30;99.90;;;;;;4983174;28;20779;-83
2024/02/13 01:24:35;;;;;;;6.38;2.90;;;4.20;99.90;;;;;;4982137;28;20348;-84
2024/02/13 01:27:24;;;;;;;5.35;3.00;;;4.20;99.90;;;;;;4981602;28;20240;-85
2024/02/13 01:30:11;;;;;;;7.70;3.20;;;4.20;99.90;;;;;;4982828;28;20654;-84
2024/02/13 01:32:56;;;;;;;7.55;3.05;;;4.10;99.90;;;;;;4978084;28;20215;-84
2024/02/13 01:35:43;;;;;;;8.05;3.17;;;4.10;99.90;;;;;;4976133;28;20231;-85
2024/02/13 01:38:30;;;;;;;7.03;3.08;;;4.20;99.90;;;;;;4980550;28;20235;-85
2024/02/13 01:41:15;;;;;;;7.25;3.15;;;4.20;99.90;;;;;;4985200;28;20304;-84
2024/02/13 01:44:03;;;;;;;9.82;3.72;;;4.30;99.90;;;;;;4983857;28;20697;-83
2024/02/13 01:46:52;;;;;;;6.55;3.30;;;4.30;99.90;;;;;;4981206;28;20208;-83
2024/02/13 01:49:37;;;;;;;6.65;3.50;;;4.20;99.90;;;;;;4980182;28;20232;-83
2024/02/13 01:52:23;;;;;;;10.20;3.13;;;4.00;99.90;;;;;;4984118;28;20277;-85
2024/02/13 01:55:12;;;;;;;10.32;3.90;;;3.90;99.90;;;;;;4981168;28;20229;-85
2024/02/13 01:58:02;;;;;;;9.05;3.50;;;4.00;99.90;;;;;;4981090;28;20216;-85
2024/02/13 02:00:58;;;;;;;9.07;3.45;;;4.00;99.90;;;;;;4987391;28;20284;-84
2024/02/13 02:03:44;;;;;;;5.05;3.17;;;4.10;99.90;;;;;;4987601;28;20805;-85
2024/02/13 02:06:30;;;;;;;10.95;3.20;;;4.20;99.90;;;;;;4986903;28;20279;-84
2024/02/13 02:09:16;;;;;;;10.98;4.00;;;4.30;99.90;;;;;;4983042;28;20273;-84
2024/02/13 02:12:02;;;;;;;10.75;3.35;;;4.40;99.90;;;;;;4980023;28;20213;-83
2024/02/13 02:14:48;;;;;;;8.32;3.25;;;4.20;99.90;;;;;;4979092;28;20240;-83
2024/02/13 02:17:35;;;;;;;8.32;3.47;;;4.20;99.90;;;;;;4978068;28;20330;-83
2024/02/13 02:20:22;;;;;;;9.52;5.10;;;4.20;99.90;;;;;;4973219;28;20264;-85
2024/02/13 02:23:07;;;;;;;11.25;4.90;;;4.20;99.90;;;;;;4969283;28;20251;-84
2024/02/13 02:25:55;;;;;;;9.63;3.60;;;4.10;99.90;;;;;;4982094;28;20217;-83
2024/02/13 02:28:43;;;;;;;8.90;3.63;;;4.10;99.90;;;;;;4977102;28;20234;-84
2024/02/13 02:31:31;;;;;;;5.80;3.15;;;4.10;99.90;;;;;;4980074;28;20765;-83
2024/02/13 02:34:18;;;;;;;8.48;3.55;;;4.00;99.90;;;;;;4983480;28;20214;-83
2024/02/13 02:37:04;;;;;;;7.45;3.25;;;4.00;99.90;;;;;;4977701;28;20257;-84
2024/02/13 02:39:50;;;;;;;7.05;4.15;;;4.00;99.90;;;;;;4979246;28;20240;-82
2024/02/13 02:42:37;;;;;;;6.72;3.80;;;3.90;99.90;;;;;;4978776;28;20250;-83
2024/02/13 02:45:23;;;;;;;4.53;3.10;;;4.00;99.90;;;;;;4979007;28;20331;-84
2024/02/13 02:48:09;;;;;;;9.70;3.55;;;4.00;99.90;;;;;;4983893;28;20219;-85
2024/02/13 02:50:54;;;;;;;12.38;4.03;;;4.00;99.90;;;;;;4983189;28;20206;-84
2024/02/13 02:53:40;;;;;;;7.38;3.42;;;4.10;99.90;;;;;;4980613;28;20214;-84
2024/02/13 02:56:26;;;;;;;8.13;4.20;;;4.20;99.90;;;;;;4977950;28;20603;-83
2024/02/13 02:59:14;;;;;;;9.88;4.30;;;4.40;99.90;;;;;;4979450;28;20299;-84
2024/02/13 03:02:01;;;;;;;10.57;3.55;;;4.30;99.90;;;;;;4979980;28;20216;-85
2024/02/13 03:04:48;;;;;;;9.05;3.60;;;4.40;99.90;;;;;;4974983;28;20316;-85
2024/02/13 03:07:34;;;;;;;15.00;4.10;;;4.30;99.90;;;;;;4980039;28;20208;-84
2024/02/13 03:10:20;;;;;;;7.05;3.47;;;4.30;99.90;;;;;;4978134;28;20243;-86
2024/02/13 03:13:05;;;;;;;9.35;3.53;;;4.10;99.90;;;;;;4977771;28;20213;-84
2024/02/13 03:15:53;;;;;;;5.28;3.53;;;4.00;99.90;;;;;;4971838;28;20357;-83
2024/02/13 03:18:39;;;;;;;8.80;3.78;;;4.10;99.90;;;;;;4979369;28;20593;-84
2024/02/13 03:21:25;;;;;;;6.35;3.30;;;4.00;99.90;;;;;;4981397;28;20933;-84
2024/02/13 03:24:10;;;;;;;7.65;3.25;;;4.00;99.90;;;;;;4979145;28;20207;-84
2024/02/13 03:26:56;;;;;;;5.70;3.38;;;4.20;99.90;;;;;;4975811;28;20644;-83
2024/02/13 03:29:42;;;;;;;8.80;3.60;;;4.20;99.90;;;;;;4979344;28;20243;-85
2024/02/13 03:32:29;;;;;;;7.00;3.50;;;4.20;99.90;;;;;;4976278;28;20212;-85
2024/02/13 03:35:15;;;;;;;7.45;3.22;;;4.10;99.90;;;;;;4982394;28;20228;-85
2024/02/13 03:38:02;;;;;;;10.35;3.90;;;4.10;99.90;;;;;;4984488;28;20258;-85
2024/02/13 03:40:47;;;;;;;7.00;3.45;;;4.20;99.90;;;;;;4987949;28;20604;-85
2024/02/13 03:43:34;;;;;;;6.85;3.65;;;4.20;99.90;;;;;;4984572;28;20302;-85
2024/02/13 03:46:19;;;;;;;8.52;4.00;;;4.20;99.90;;;;;;4980303;28;20316;-85
2024/02/13 03:49:08;;;;;;;9.45;3.58;;;4.30;99.90;;;;;;4981338;28;20310;-85
2024/02/13 03:51:54;;;;;;;6.43;4.07;;;4.30;99.90;;;;;;4975030;28;20203;-85
2024/02/13 03:54:40;;;;;;;6.45;3.50;;;4.20;99.90;;;;;;4977773;28;20282;-85
2024/02/13 03:57:26;;;;;;;7.38;3.83;;;4.20;99.90;;;;;;4980401;28;20315;-84
2024/02/13 04:00:12;;;;;;;5.00;4.13;;;4.30;99.90;;;;;;4977249;28;20309;-85
2024/02/13 04:02:58;;;;;;;8.10;3.85;;;4.40;99.90;;;;;;4978981;28;20220;-83
2024/02/13 04:05:45;;;;;;;11.38;4.88;;;4.40;99.90;;;;;;4979856;28;20209;-84
2024/02/13 04:08:31;;;;;;;6.55;3.65;;;4.30;99.90;;;;;;4972571;28;20292;-84
2024/02/13 04:11:17;;;;;;;6.22;3.80;;;4.40;99.90;;;;;;4982350;28;20212;-84
2024/02/13 04:14:03;;;;;;;8.55;3.60;;;4.40;99.90;;;;;;4978435;28;20219;-84
2024/02/13 04:16:48;;;;;;;5.85;4.20;;;4.40;99.90;;;;;;4979260;28;20348;-83
2024/02/13 04:19:34;;;;;;;5.88;3.60;;;4.50;99.90;;;;;;4982953;28;20305;-85
2024/02/13 04:22:21;;;;;;;8.95;4.70;;;4.50;99.90;;;;;;4989369;28;20330;-83
2024/02/13 04:25:08;;;;;;;6.78;3.90;;;4.50;99.90;;;;;;4979385;28;20215;-85
2024/02/13 04:27:53;;;;;;;8.35;4.57;;;4.50;99.90;;;;;;4979969;28;20246;-84
2024/02/13 04:30:40;;;;;;;7.90;4.35;;;4.40;99.90;;;;;;4977449;28;20688;-84
2024/02/13 04:33:26;;;;;;;8.70;5.18;;;4.50;99.90;;;;;;4979806;28;20227;-85
2024/02/13 04:36:11;;;;;;;6.55;4.25;;;4.50;99.90;;;;;;4984397;28;20234;-85
2024/02/13 04:38:59;;;;;;;5.65;4.60;;;4.40;99.90;;;;;;4986379;28;20240;-84
2024/02/13 04:41:46;;;;;;;6.13;3.95;;;4.30;99.90;;;;;;4991447;28;20214;-83
2024/02/13 04:44:32;;;;;;;6.70;4.65;;;4.20;99.90;;;;;;4985689;28;20287;-85
2024/02/13 04:47:18;;;;;;;9.15;5.25;;;4.10;99.90;;;;;;4986185;28;20209;-84
2024/02/13 04:50:06;;;;;;;9.18;5.30;;;4.00;99.90;;;;;;4981934;28;20252;-84
2024/02/13 04:52:52;;;;;;;9.70;5.95;;;3.90;99.90;;;;;;4982433;28;20223;-83
2024/02/13 04:55:39;;;;;;;8.27;6.63;;;3.80;99.90;;;;;;4984245;28;20264;-83
2024/02/13 04:58:31;;;;;;;12.20;6.75;;;3.70;99.90;;;;;;4983710;28;20238;-85
2024/02/13 05:01:16;;;;;;;10.55;5.30;;;3.60;99.90;;;;;;4974109;28;20283;-82
2024/02/13 05:07:20;;;;;;;10.85;6.63;;;3.90;99.90;;;;;;4980826;28;20223;-86
2024/02/13 05:10:06;;;;;;;10.90;5.03;;;3.90;99.90;;;;;;4981134;28;20291;-84
2024/02/13 05:12:54;;;;;;;6.63;4.85;;;3.90;99.90;;;;;;4980413;28;20226;-83
2024/02/13 05:15:40;;;;;;;8.90;5.05;;;3.90;99.90;;;;;;4982159;28;20207;-85
2024/02/13 05:18:26;;;;;;;10.35;5.47;;;3.80;99.90;;;;;;4977304;28;20271;-85
2024/02/13 05:21:13;;;;;;;11.05;5.32;;;3.80;99.90;;;;;;4981604;28;20256;-85
2024/02/13 05:23:59;;;;;;;12.95;5.38;;;3.80;99.90;;;;;;4970876;28;20207;-82
2024/02/13 05:26:44;;;;;;;9.25;4.60;;;3.80;99.90;;;;;;4975812;28;20219;-84
2024/02/13 05:29:33;;;;;;;6.05;4.45;;;4.00;99.90;;;;;;4974282;28;20275;-84
2024/02/13 05:32:19;;;;;;;9.02;4.35;;;4.10;99.90;;;;;;4978674;28;20212;-84
2024/02/13 05:35:07;;;;;;;10.95;4.25;;;4.20;99.90;;;;;;4974018;28;20212;-83
2024/02/13 05:37:53;;;;;;;6.70;4.70;;;4.20;99.90;;;;;;4984365;28;20310;-85
2024/02/13 05:40:42;;;;;;;6.07;4.60;;;4.10;99.90;;;;;;4975628;28;20921;-85
2024/02/13 05:43:27;;;;;;;8.35;5.22;;;3.90;99.90;;;;;;4971113;28;20709;-84
2024/02/13 05:46:14;;;;;;;11.25;4.97;;;4.00;99.90;;;;;;4975698;28;20281;-84
2024/02/13 05:49:00;;;;;;;12.40;5.78;;;4.00;99.90;;;;;;4979127;28;20227;-84
2024/02/13 05:51:46;;;;;;;7.80;4.25;;;4.10;99.90;;;;;;4978343;28;20208;-83
2024/02/13 05:54:33;;;;;;;10.57;4.90;;;4.20;99.90;;;;;;4976923;28;20212;-84
2024/02/13 05:57:19;;;;;;;12.10;5.68;;;4.20;99.90;;;;;;4977751;28;20231;-85
2024/02/13 06:00:09;;;;;;;6.72;5.20;;;4.10;99.90;;;;;;4974534;28;20280;-85
2024/02/13 06:02:56;;;;;;;9.10;5.22;;;4.20;99.90;;;;;;4977594;28;20301;-84
2024/02/13 06:05:42;;;;;;;8.65;5.10;;;4.30;99.90;;;;;;4980271;28;20272;-84
2024/02/13 06:08:28;;;;;;;10.88;4.57;;;4.30;99.90;;;;;;4983825;28;20222;-84
2024/02/13 06:11:14;;;;;;;14.50;6.05;;;4.40;99.90;;;;;;4978549;28;20868;-84
2024/02/13 06:13:59;;;;;;;8.35;5.97;;;4.40;99.90;;;;;;4981544;28;20217;-84
2024/02/13 06:16:45;;;;;;;9.10;5.30;;;4.50;99.90;;;;;;4983012;28;20261;-83
2024/02/13 06:19:32;;;;;;;9.55;5.00;;;4.50;99.90;;;;;;4985489;28;20273;-85
2024/02/13 06:22:18;;;;;;;8.65;4.85;;;4.50;99.90;;;;;;4985857;28;20210;-84
2024/02/13 06:25:05;;;;;;;9.07;5.22;;;4.50;99.90;;;;;;4991566;28;20214;-85
2024/02/13 06:27:51;;;;;;;14.40;6.57;;;4.60;99.90;;;;;;4989070;28;20261;-84
2024/02/13 06:30:39;;;;;;;14.68;8.80;;;4.70;99.90;;;;;;4983958;28;20353;-84
2024/02/13 06:33:25;;;;;;;24.33;17.15;;;4.70;99.90;;;;;;4988934;28;20208;-85
2024/02/13 06:36:12;;;;;;;33.35;21.45;;;4.60;99.90;;;;;;4990200;28;20584;-84
2024/02/13 06:38:58;;;;;;;28.85;20.48;;;4.60;99.90;;;;;;4988352;28;20226;-84
2024/02/13 06:41:44;;;;;;;27.92;17.63;;;4.60;99.90;;;;;;4978459;28;20211;-84
2024/02/13 06:44:31;;;;;;;19.63;13.05;;;4.70;99.90;;;;;;4986491;28;20764;-85
2024/02/13 06:47:16;;;;;;;19.30;12.95;;;4.80;99.90;;;;;;4984566;28;20270;-85
2024/02/13 06:50:02;;;;;;;16.25;13.20;;;4.80;99.90;;;;;;4990474;28;20232;-83
2024/02/13 06:52:51;;;;;;;24.42;13.05;;;4.70;99.90;;;;;;4993737;28;20200;-85
2024/02/13 06:55:37;;;;;;;21.65;12.30;;;4.70;99.90;;;;;;4990174;28;20691;-86
2024/02/13 06:58:23;;;;;;;16.95;12.15;;;4.80;99.90;;;;;;4986285;28;20235;-85
2024/02/13 07:01:12;;;;;;;15.95;11.27;;;4.90;99.90;;;;;;4981112;28;20207;-83
2024/02/13 07:03:57;;;;;;;14.75;10.15;;;4.90;99.90;;;;;;4982512;28;20210;-84
2024/02/13 07:06:43;;;;;;;11.77;8.95;;;5.00;99.90;;;;;;4984089;28;20208;-83
2024/02/13 07:09:36;;;;;;;13.13;8.45;;;4.90;99.90;;;;;;4977738;28;20256;-85
2024/02/13 07:12:21;;;;;;;15.43;8.70;;;4.90;99.90;;;;;;4983764;28;20236;-85
2024/02/13 07:15:13;;;;;;;18.23;9.60;;;4.90;99.90;;;;;;4986042;28;20307;-82
2024/02/13 07:17:58;;;;;;;18.67;9.02;;;4.90;99.90;;;;;;4985361;28;20231;-83
2024/02/13 07:20:44;;;;;;;20.25;9.25;;;5.00;99.90;;;;;;4985946;28;20224;-85
2024/02/13 07:23:30;;;;;;;14.88;8.05;;;5.00;99.90;;;;;;4982331;28;20289;-84
2024/02/13 07:26:21;;;;;;;12.45;8.27;;;5.00;99.90;;;;;;4983741;28;20336;-83
2024/02/13 07:29:07;;;;;;;12.82;8.82;;;5.00;99.90;;;;;;4977163;28;20229;-84
2024/02/13 07:31:52;;;;;;;11.48;8.85;;;5.00;99.90;;;;;;4983413;28;20213;-84
2024/02/13 07:34:39;;;;;;;13.52;8.40;;;5.00;99.90;;;;;;4983005;28;20200;-83
2024/02/13 07:37:25;;;;;;;16.13;8.35;;;5.00;99.90;;;;;;4981429;28;20271;-84
2024/02/13 07:40:13;;;;;;;16.08;10.05;;;5.10;99.90;;;;;;4984688;28;20228;-84
2024/02/13 07:43:00;;;;;;;22.25;11.20;;;5.20;99.90;;;;;;4982605;28;20244;-85
2024/02/13 07:45:46;;;;;;;11.70;10.25;;;5.30;99.90;;;;;;4982394;28;20204;-85
2024/02/13 07:48:33;;;;;;;20.90;10.82;;;5.30;99.90;;;;;;4983059;28;20743;-85
2024/02/13 07:51:19;;;;;;;18.40;9.88;;;5.40;99.90;;;;;;4983211;28;20207;-84
2024/02/13 07:54:05;;;;;;;16.15;10.93;;;5.30;99.90;;;;;;4984983;28;20244;-84
2024/02/13 07:56:52;;;;;;;15.85;11.63;;;5.30;99.90;;;;;;4983090;28;20706;-85
2024/02/13 07:59:39;;;;;;;14.20;10.73;;;5.40;99.90;;;;;;4986213;28;20437;-85
2024/02/13 08:02:25;;;;;;;18.58;11.38;;;5.40;99.90;;;;;;4980122;28;20219;-85
2024/02/13 08:05:12;;;;;;;20.45;10.70;;;5.40;99.90;;;;;;4984494;28;20208;-84
2024/02/13 08:07:58;;;;;;;16.98;10.95;;;5.50;99.90;;;;;;4985749;28;20207;-86
2024/02/13 08:10:46;;;;;;;12.90;10.13;;;5.60;99.90;;;;;;4984693;28;20231;-85
2024/02/13 08:13:31;;;;;;;12.35;10.70;;;5.60;99.90;;;;;;4982756;28;20208;-85
2024/02/13 08:16:21;;;;;;;21.23;11.38;;;5.70;99.90;;;;;;4986350;28;20219;-85
2024/02/13 08:19:06;;;;;;;14.32;12.32;;;5.70;99.90;;;;;;4984131;28;20232;-84
2024/02/13 08:21:52;;;;;;;15.57;12.30;;;5.90;99.90;;;;;;4988691;28;20209;-84
2024/02/13 08:24:38;;;;;;;15.23;11.48;;;6.00;99.90;;;;;;4988855;28;20538;-86
2024/02/13 08:27:24;;;;;;;17.50;12.90;;;6.10;99.90;;;;;;4983331;28;20257;-84
2024/02/13 08:30:10;;;;;;;16.50;11.50;;;6.20;99.90;;;;;;4988551;28;20465;-83
2024/02/13 08:32:58;;;;;;;18.40;10.33;;;6.30;99.90;;;;;;4976200;28;20468;-85
2024/02/13 08:35:43;;;;;;;15.00;11.47;;;6.50;99.90;;;;;;4978876;28;20451;-87
2024/02/13 08:38:29;;;;;;;20.33;11.90;;;6.60;99.90;;;;;;4983190;28;20501;-85
2024/02/13 08:41:15;;;;;;;15.00;11.40;;;6.70;99.90;;;;;;4977583;28;20439;-85
2024/02/13 08:44:01;;;;;;;18.70;10.53;;;6.80;99.90;;;;;;4983622;28;20539;-85
2024/02/13 08:46:46;;;;;;;20.80;11.00;;;6.80;99.90;;;;;;4981479;28;20833;-86
2024/02/13 08:49:33;;;;;;;20.37;10.03;;;6.90;99.90;;;;;;4981828;28;20465;-86
2024/02/13 08:52:19;;;;;;;14.70;10.77;;;7.00;99.90;;;;;;4976810;28;21041;-85
2024/02/13 08:55:07;;;;;;;19.20;11.70;;;7.10;99.90;;;;;;4974129;28;20532;-85
2024/02/13 08:57:52;;;;;;;15.30;9.40;;;7.10;99.90;;;;;;4977080;28;20476;-84
2024/02/13 09:00:38;;;;;;;17.20;8.10;;;7.30;99.90;;;;;;4978350;28;20447;-85
2024/02/13 09:03:24;;;;;;;14.57;8.40;;;7.40;99.90;;;;;;4979049;28;20689;-84
2024/02/13 09:06:11;;;;;;;15.10;8.87;;;7.40;99.90;;;;;;4984743;28;20410;-85
2024/02/13 09:08:57;;;;;;;10.90;7.07;;;7.50;99.90;;;;;;4984414;28;20564;-85
2024/02/13 09:11:45;;;;;;;10.83;7.00;;;7.50;99.90;;;;;;4982802;28;20577;-84
2024/02/13 09:14:33;;;;;;;11.33;6.57;;;7.70;99.90;;;;;;4983525;28;20450;-85
2024/02/13 09:17:19;;;;;;;6.90;4.63;;;7.80;99.90;;;;;;4979893;28;20481;-84
2024/02/13 09:20:06;;;;;;;8.57;5.73;;;8.00;99.90;;;;;;4982039;28;20532;-83
2024/02/13 09:22:55;;;;;;;10.37;5.53;;;8.00;99.90;;;;;;4987746;28;20524;-85
2024/02/13 09:25:41;;;;;;;8.17;4.10;;;8.10;99.90;;;;;;4981185;28;20485;-82
2024/02/13 09:28:27;;;;;;;6.23;4.40;;;8.20;99.90;;;;;;4985890;28;20544;-84
2024/02/13 09:31:14;;;;;;;7.73;3.50;;;8.40;99.90;;;;;;4985420;28;20535;-84
2024/02/13 09:33:59;;;;;;;10.43;4.10;;;8.40;99.90;;;;;;4986455;28;20951;-83
2024/02/13 09:36:45;;;;;;;10.27;4.40;;;8.60;99.90;;;;;;4988472;28;20448;-84
2024/02/13 09:39:32;;;;;;;10.40;5.43;;;8.70;99.90;;;;;;4975882;28;20473;-83
2024/02/13 09:42:18;;;;;;;15.03;5.47;;;8.70;99.90;;;;;;4980451;28;20429;-82
2024/02/13 09:45:05;;;;;;;9.53;5.23;;;8.80;99.90;;;;;;4983663;28;20844;-84
2024/02/13 09:47:53;;;;;;;13.03;5.13;;;8.80;99.90;;;;;;4981899;28;20940;-84
2024/02/13 09:50:43;;;;;;;10.03;4.27;;;8.90;99.90;;;;;;4980716;28;20474;-83
2024/02/13 09:53:29;;;;;;;10.90;4.50;;;9.10;99.90;;;;;;4979840;28;20453;-83
2024/02/13 09:56:17;;;;;;;11.53;4.03;;;9.30;99.90;;;;;;4980765;28;20599;-83
2024/02/13 09:59:04;;;;;;;7.47;4.10;;;9.50;99.90;;;;;;4976597;28;20481;-83
2024/02/13 10:01:49;;;;;;;13.07;3.90;;;9.70;99.90;;;;;;4976785;28;20413;-84
2024/02/13 10:04:35;;;;;;;8.60;4.50;;;9.80;99.90;;;;;;4972508;28;20462;-83
2024/02/13 10:07:22;;;;;;;8.93;4.13;;;9.90;99.90;;;;;;4976852;28;20457;-83
2024/02/13 10:10:11;;;;;;;8.67;4.10;;;10.10;99.90;;;;;;4977853;28;20529;-82
2024/02/13 10:13:00;;;;;;;12.77;5.30;;;10.00;99.90;;;;;;4976520;28;21136;-84
2024/02/13 10:15:46;;;;;;;12.33;5.07;;;10.00;99.90;;;;;;4979589;28;20464;-83
2024/02/13 10:18:33;;;;;;;5.30;3.70;;;10.00;99.90;;;;;;4982754;28;20948;-84
2024/02/13 10:21:18;;;;;;;8.90;4.87;;;10.00;99.90;;;;;;4983996;28;20458;-84
2024/02/13 10:24:11;;;;;;;12.20;5.63;;;9.90;99.90;;;;;;4976368;28;20453;-82
2024/02/13 10:26:59;;;;;;;6.83;4.70;;;9.80;99.90;;;;;;4981817;28;20441;-82
2024/02/13 10:29:46;;;;;;;8.67;5.33;;;9.70;99.90;;;;;;4980101;28;20435;-83
2024/02/13 10:32:37;;;;;;;12.70;5.50;;;9.50;99.90;;;;;;4984092;28;20425;-84
2024/02/13 10:35:24;;;;;;;7.30;4.63;;;9.40;99.90;;;;;;4983863;28;20419;-84
2024/02/13 10:38:11;;;;;;;8.97;4.90;;;9.40;99.90;;;;;;4983728;28;20552;-82
2024/02/13 10:40:58;;;;;;;8.40;4.67;;;9.40;99.90;;;;;;4976507;28;20868;-83
2024/02/13 10:43:44;;;;;;;7.20;4.70;;;9.40;99.90;;;;;;4972621;28;20473;-84
2024/02/13 10:46:36;;;;;;;9.90;5.30;;;9.40;99.90;;;;;;4982892;28;20460;-84
2024/02/13 10:49:30;;;;;;;8.83;4.43;;;9.30;99.90;;;;;;4977655;28;20464;-82
2024/02/13 10:52:17;;;;;;;12.30;5.80;;;9.40;99.90;;;;;;4980790;28;20482;-84
2024/02/13 10:55:06;;;;;;;9.60;5.97;;;9.50;99.90;;;;;;4981277;28;20428;-83
2024/02/13 10:57:53;;;;;;;14.40;6.50;;;9.50;99.90;;;;;;4976594;28;20454;-82
2024/02/13 11:00:40;;;;;;;7.27;4.67;;;9.50;99.90;;;;;;4968245;28;20840;-83
2024/02/13 11:03:28;;;;;;;13.93;5.80;;;9.80;99.90;;;;;;4977921;28;20448;-83
2024/02/13 11:06:14;;;;;;;9.57;5.20;;;10.10;99.90;;;;;;4980502;28;20508;-84
2024/02/13 11:09:01;;;;;;;11.03;5.50;;;10.20;99.90;;;;;;4983042;28;20452;-83
2024/02/13 11:11:47;;;;;;;12.77;6.97;;;10.10;99.90;;;;;;4978646;28;20469;-83
2024/02/13 11:14:32;;;;;;;8.83;6.50;;;10.00;99.90;;;;;;4979361;28;20437;-83
2024/02/13 11:17:18;;;;;;;8.40;6.43;;;9.80;99.90;;;;;;4976336;28;20481;-82
2024/02/13 11:20:09;;;;;;;8.47;6.53;;;9.60;99.90;;;;;;4981394;28;20466;-83
2024/02/13 11:22:57;;;;;;;11.87;7.47;;;9.40;99.90;;;;;;4978092;28;20502;-84
2024/02/13 11:25:44;;;;;;;10.50;5.50;;;9.30;99.90;;;;;;4969527;28;20538;-84
2024/02/13 11:28:34;;;;;;;11.33;7.63;;;9.30;99.90;;;;;;4973980;28;20485;-84
2024/02/13 11:31:19;;;;;;;10.20;7.23;;;9.30;99.90;;;;;;4978144;28;20558;-82
2024/02/13 11:34:06;;;;;;;13.50;6.90;;;9.30;99.90;;;;;;4976856;28;20465;-84
2024/02/13 11:36:53;;;;;;;10.57;6.47;;;9.20;99.90;;;;;;4980574;28;20459;-83
2024/02/13 11:39:41;;;;;;;11.60;5.97;;;9.20;99.90;;;;;;4978658;28;20517;-84
2024/02/13 11:42:33;;;;;;;13.10;6.83;;;9.10;99.90;;;;;;4982339;28;20564;-85
2024/02/13 11:45:25;;;;;;;36.90;22.80;;;9.00;99.90;;;;;;4982256;28;20438;-85
2024/02/13 11:48:15;;;;;;;20.67;13.33;;;9.00;99.90;;;;;;4985240;28;21931;-83
2024/02/13 11:51:02;;;;;;;8.87;6.37;;;9.00;99.90;;;;;;4999613;28;20471;-82
2024/02/13 11:53:49;;;;;;;14.53;8.00;;;9.10;99.90;;;;;;4973550;28;20432;-83
2024/02/13 11:56:35;;;;;;;12.03;8.60;;;9.10;99.90;;;;;;4978196;28;20478;-83
2024/02/13 11:59:21;;;;;;;14.10;8.20;;;9.00;99.90;;;;;;4984272;28;20522;-82
2024/02/13 12:02:11;;;;;;;11.50;5.70;;;9.00;99.90;;;;;;4985350;28;20453;-81
2024/02/13 12:04:57;;;;;;;10.50;6.10;;;9.10;99.90;;;;;;4983222;28;20473;-83
2024/02/13 12:07:43;;;;;;;14.10;9.90;;;9.20;99.90;;;;;;4977804;28;20521;-83
2024/02/13 12:10:30;;;;;;;11.97;7.80;;;9.20;99.90;;;;;;4982002;28;20425;-84
2024/02/13 12:13:18;;;;;;;18.63;11.10;;;9.30;99.90;;;;;;4992943;28;20947;-83
2024/02/13 12:16:04;;;;;;;32.03;20.97;;;9.50;99.90;;;;;;4988488;28;20438;-82
2024/02/13 12:18:50;;;;;;;10.13;5.77;;;9.60;99.90;;;;;;4984937;28;20454;-82
2024/02/13 12:21:38;;;;;;;7.07;5.10;;;9.80;99.90;;;;;;4984425;28;20436;-83
2024/02/13 12:24:24;;;;;;;6.10;4.40;;;9.90;99.90;;;;;;4976708;28;20454;-81
2024/02/13 12:27:12;;;;;;;8.40;5.70;;;10.00;99.90;;;;;;4987239;28;20776;-83
2024/02/13 12:29:58;;;;;;;11.93;5.47;;;10.10;99.90;;;;;;4976829;28;20479;-82
2024/02/13 12:32:44;;;;;;;19.73;8.03;;;10.00;99.90;;;;;;4978864;28;20458;-83
2024/02/13 12:35:33;;;;;;;18.47;10.23;;;10.10;99.90;;;;;;4981429;28;20538;-83
2024/02/13 12:38:19;;;;;;;23.17;10.30;;;10.10;99.90;;;;;;4983524;28;21055;-83
2024/02/13 12:41:05;;;;;;;10.80;6.03;;;10.10;99.90;;;;;;4978250;28;21029;-83
2024/02/13 12:43:52;;;;;;;12.00;6.30;;;10.00;99.90;;;;;;4979905;28;20812;-84
2024/02/13 12:46:38;;;;;;;15.30;7.80;;;10.00;99.90;;;;;;4976998;28;20616;-83
2024/02/13 12:49:26;;;;;;;14.87;7.17;;;10.00;99.90;;;;;;4979189;28;20452;-83
2024/02/13 12:52:16;;;;;;;9.10;5.70;;;9.90;99.90;;;;;;4984262;28;20430;-84
2024/02/13 12:55:04;;;;;;;9.50;4.30;;;9.90;99.90;;;;;;4980548;28;20534;-84
2024/02/13 12:57:50;;;;;;;57.63;21.27;;;9.90;99.90;;;;;;4979112;28;20561;-84
2024/02/13 13:00:38;;;;;;;14.87;6.77;;;10.00;99.90;;;;;;4986445;28;20437;-85
2024/02/13 13:03:26;;;;;;;38.70;15.17;;;10.40;99.90;;;;;;4987946;28;21720;-84
2024/02/13 13:06:11;;;;;;;9.87;4.63;;;10.90;99.90;;;;;;4967848;28;20486;-83
2024/02/13 13:08:57;;;;;;;7.47;4.97;;;11.20;99.90;;;;;;4974120;28;20477;-81
2024/02/13 13:11:43;;;;;;;6.37;4.67;;;11.30;99.90;;;;;;4975780;28;20456;-82
2024/02/13 13:14:29;;;;;;;20.67;14.30;;;11.30;99.90;;;;;;4979331;28;20464;-82
2024/02/13 13:17:21;;;;;;;13.00;6.63;;;11.10;99.90;;;;;;4970186;28;20460;-83
2024/02/13 13:20:09;;;;;;;10.03;5.80;;;10.90;99.90;;;;;;4970525;28;21202;-85
2024/02/13 13:22:55;;;;;;;7.20;4.50;;;10.80;99.90;;;;;;4977839;28;20598;-83
2024/02/13 13:25:45;;;;;;;6.10;3.47;;;10.80;99.90;;;;;;4974488;28;20473;-83
2024/02/13 13:28:32;;;;;;;8.90;5.07;;;10.80;99.90;;;;;;4975496;28;20988;-83
2024/02/13 13:31:19;;;;;;;5.77;4.13;;;10.90;99.90;;;;;;4973924;28;20433;-82
2024/02/13 13:34:08;;;;;;;7.47;4.13;;;10.90;99.90;;;;;;4975002;28;20435;-81
2024/02/13 13:36:55;;;;;;;8.43;4.00;;;10.90;99.90;;;;;;4969208;28;20591;-82
2024/02/13 13:39:41;;;;;;;7.53;3.77;;;10.90;99.90;;;;;;4969176;28;20526;-83
2024/02/13 13:42:26;;;;;;;9.57;3.37;;;10.80;99.90;;;;;;4978310;28;20448;-81
2024/02/13 13:45:15;;;;;;;4.00;2.40;;;10.70;99.90;;;;;;4973008;28;20516;-81
2024/02/13 13:48:15;;;;;;;5.03;2.87;;;10.60;99.90;;;;;;4972747;28;20493;-81
2024/02/13 13:51:02;;;;;;;5.13;2.83;;;10.50;99.90;;;;;;4964466;28;20559;-82
2024/02/13 13:53:48;;;;;;;3.50;2.40;;;10.70;99.90;;;;;;4969146;28;20449;-81
2024/02/13 13:56:33;;;;;;;6.97;3.30;;;10.70;99.90;;;;;;4963025;28;20474;-82
2024/02/13 13:59:19;;;;;;;6.17;3.07;;;10.70;99.90;;;;;;4974710;28;20485;-82
2024/02/13 14:02:06;;;;;;;4.10;2.57;;;10.70;99.90;;;;;;4973623;28;20493;-81
2024/02/13 14:04:53;;;;;;;6.43;2.17;;;10.60;99.90;;;;;;4976905;28;20477;-83
2024/02/13 14:07:40;;;;;;;4.60;2.33;;;10.60;99.90;;;;;;4963299;28;20469;-81
2024/02/13 14:10:26;;;;;;;7.57;2.63;;;10.60;99.90;;;;;;4977791;28;20436;-83
2024/02/13 14:13:12;;;;;;;4.90;3.23;;;10.50;99.90;;;;;;4975945;28;20448;-83
2024/02/13 14:15:58;;;;;;;10.10;2.60;;;10.40;99.40;;;;;;4979230;28;20598;-82
2024/02/13 14:18:44;;;;;;;5.13;2.13;;;10.30;97.00;;;;;;4979836;28;20498;-82
2024/02/13 14:21:30;;;;;;;4.93;2.10;;;10.30;95.40;;;;;;4986921;28;20559;-84
2024/02/13 14:24:18;;;;;;;7.50;2.57;;;10.20;97.10;;;;;;4974750;28;20482;-84
2024/02/13 14:27:04;;;;;;;5.80;1.90;;;10.20;98.90;;;;;;4973849;28;20453;-83
2024/02/13 14:29:50;;;;;;;3.63;1.90;;;10.20;96.00;;;;;;4971808;28;20469;-84
2024/02/13 14:32:36;;;;;;;5.83;1.80;;;10.30;96.20;;;;;;4975295;28;20481;-84